Time,TemperatureF,DewpointF,PressureIn,WindDirection,WindDirectionDegrees,WindSpeedMPH,WindSpeedGustMPH,Humidity,HourlyPrecipIn,Conditions,Clouds,dailyrainin,SoftwareType,DateUTC
2013-06-25 00:01:00,78.5,75.0,30.20,South,184,0.0,0.0,89,0.00,,,0.00,WUHU216PEETBRO,2013-06-25 04:01:00,
2013-06-25 00:03:00,78.4,75.0,30.20,South,184,0.0,0.0,89,0.00,,,0.00,WUHU216PEETBRO,2013-06-25 04:03:00,
2013-06-25 00:08:00,78.3,75.0,30.20,South,184,0.0,0.0,90,0.00,,,0.00,WUHU216PEETBRO,2013-06-25 04:08:00,
2013-06-25 00:13:00,78.2,75.0,30.20,South,184,0.0,3.3,90,0.00,,,0.00,WUHU216PEETBRO,2013-06-25 04:13:00,
2013-06-25 00:18:00,78.1,75.0,30.20,South,184,0.0,3.3,90,0.00,,,0.00,WUHU216PEETBRO,2013-06-25 04:18:00,
2013-06-25 00:23:00,78.2,75.1,30.21,South,184,0.0,0.0,90,0.00,,,0.00,WUHU216PEETBRO,2013-06-25 04:23:00,
2013-06-25 00:28:00,78.2,75.2,30.21,South,184,0.0,0.0,91,0.00,,,0.00,WUHU216PEETBRO,2013-06-25 04:28:00,
2013-06-25 00:33:00,78.1,75.1,30.21,South,184,0.0,0.0,91,0.00,,,0.00,WUHU216PEETBRO,2013-06-25 04:33:00,
2013-06-25 00:38:00,78.1,75.1,30.21,South,184,0.0,0.0,91,0.00,,,0.00,WUHU216PEETBRO,2013-06-25 04:38:00,
2013-06-25 00:43:00,78.0,75.0,30.21,NE,35,0.0,2.5,91,0.00,,,0.00,WUHU216PEETBRO,2013-06-25 04:43:00,
2013-06-25 00:48:00,77.9,74.9,30.21,NE,35,0.0,2.5,91,0.00,,,0.00,WUHU216PEETBRO,2013-06-25 04:48:00,
2013-06-25 00:53:00,77.9,75.0,30.21,NE,35,0.0,0.0,91,0.00,,,0.00,WUHU216PEETBRO,2013-06-25 04:53:00,
2013-06-25 00:57:00,78.0,75.1,30.20,NE,35,0.0,0.0,91,0.00,,,0.00,WUHU216PEETBRO,2013-06-25 04:57:00,
2013-06-25 01:02:00,78.0,75.3,30.20,NE,35,0.0,0.0,91,0.00,,,0.00,WUHU216PEETBRO,2013-06-25 05:02:00,
2013-06-25 01:07:00,77.9,75.2,30.20,SE,124,0.0,0.0,92,0.00,,,0.00,WUHU216PEETBRO,2013-06-25 05:07:00,
2013-06-25 01:13:00,77.9,75.3,30.19,SSE,160,0.0,2.5,92,0.00,,,0.00,WUHU216PEETBRO,2013-06-25 05:13:00,
2013-06-25 01:18:00,77.7,75.2,30.19,ESE,105,0.0,4.6,92,0.00,,,0.00,WUHU216PEETBRO,2013-06-25 05:18:00,
2013-06-25 01:23:00,77.7,75.2,30.19,ESE,105,0.0,4.6,92,0.00,,,0.00,WUHU216PEETBRO,2013-06-25 05:23:00,
2013-06-25 01:28:00,77.4,75.0,30.19,ESE,110,4.9,5.3,93,0.00,,,0.00,WUHU216PEETBRO,2013-06-25 05:28:00,
2013-06-25 01:33:00,77.4,75.1,30.19,ESE,104,0.0,5.3,93,0.00,,,0.00,WUHU216PEETBRO,2013-06-25 05:33:00,
2013-06-25 01:38:00,77.3,75.0,30.19,NE,38,0.0,4.3,93,0.00,,,0.00,WUHU216PEETBRO,2013-06-25 05:38:00,
2013-06-25 01:43:00,77.2,75.0,30.18,NE,38,0.0,3.4,93,0.00,,,0.00,WUHU216PEETBRO,2013-06-25 05:43:00,
2013-06-25 01:48:00,77.2,75.0,30.18,NE,38,0.0,0.0,93,0.00,,,0.00,WUHU216PEETBRO,2013-06-25 05:48:00,
2013-06-25 01:53:00,77.2,75.0,30.18,NE,38,0.0,0.0,93,0.00,,,0.00,WUHU216PEETBRO,2013-06-25 05:53:00,
2013-06-25 01:58:00,77.1,74.9,30.18,NE,38,0.0,0.0,93,0.00,,,0.00,WUHU216PEETBRO,2013-06-25 05:58:00,
2013-06-25 02:03:00,77.0,74.9,30.17,NE,38,0.0,0.0,93,0.00,,,0.00,WUHU216PEETBRO,2013-06-25 06:03:00,
2013-06-25 02:08:00,76.9,74.8,30.17,NE,38,0.0,0.0,93,0.00,,,0.00,WUHU216PEETBRO,2013-06-25 06:08:00,
2013-06-25 02:13:00,76.9,74.8,30.16,NE,38,0.0,0.0,93,0.00,,,0.00,WUHU216PEETBRO,2013-06-25 06:13:00,
2013-06-25 02:18:00,76.8,74.7,30.16,East,100,0.0,3.3,93,0.00,,,0.00,WUHU216PEETBRO,2013-06-25 06:18:00,
2013-06-25 02:23:00,76.8,74.8,30.16,East,100,0.0,3.3,94,0.00,,,0.00,WUHU216PEETBRO,2013-06-25 06:23:00,
2013-06-25 02:28:00,76.7,74.7,30.15,East,100,0.0,0.0,94,0.00,,,0.00,WUHU216PEETBRO,2013-06-25 06:28:00,
2013-06-25 02:33:00,76.5,74.5,30.15,ESE,105,0.0,6.1,94,0.00,,,0.00,WUHU216PEETBRO,2013-06-25 06:33:00,
2013-06-25 02:38:00,76.4,74.5,30.15,SE,129,0.0,6.1,94,0.00,,,0.00,WUHU216PEETBRO,2013-06-25 06:38:00,
2013-06-25 02:43:00,76.3,74.4,30.16,SE,129,0.0,5.4,94,0.00,,,0.00,WUHU216PEETBRO,2013-06-25 06:43:00,
2013-06-25 02:48:00,76.3,74.4,30.15,ESE,108,0.0,4.3,94,0.00,,,0.00,WUHU216PEETBRO,2013-06-25 06:48:00,
2013-06-25 02:53:00,76.3,74.4,30.15,East,83,0.0,4.3,94,0.00,,,0.00,WUHU216PEETBRO,2013-06-25 06:53:00,
2013-06-25 02:58:00,76.2,74.4,30.15,East,83,0.0,3.4,94,0.00,,,0.00,WUHU216PEETBRO,2013-06-25 06:58:00,
2013-06-25 03:03:00,76.1,74.3,30.15,East,83,0.0,0.0,94,0.00,,,0.00,WUHU216PEETBRO,2013-06-25 07:03:00,
2013-06-25 03:08:00,76.0,74.2,30.15,East,83,0.0,0.0,94,0.00,,,0.00,WUHU216PEETBRO,2013-06-25 07:08:00,
2013-06-25 03:13:00,76.0,74.2,30.15,East,83,0.0,0.0,94,0.00,,,0.00,WUHU216PEETBRO,2013-06-25 07:13:00,
2013-06-25 03:18:00,75.9,74.2,30.15,East,88,0.0,5.2,95,0.00,,,0.00,WUHU216PEETBRO,2013-06-25 07:18:00,
2013-06-25 03:23:00,75.9,74.1,30.15,ENE,71,0.0,5.2,94,0.00,,,0.00,WUHU216PEETBRO,2013-06-25 07:23:00,
2013-06-25 03:28:00,75.9,74.2,30.15,ESE,114,0.0,3.4,95,0.00,,,0.00,WUHU216PEETBRO,2013-06-25 07:28:00,
2013-06-25 03:33:00,75.8,74.1,30.15,ESE,114,0.0,2.9,95,0.00,,,0.00,WUHU216PEETBRO,2013-06-25 07:33:00,
2013-06-25 03:38:00,75.8,74.1,30.15,ESE,114,0.0,0.0,95,0.00,,,0.00,WUHU216PEETBRO,2013-06-25 07:38:00,
2013-06-25 03:43:00,75.7,74.1,30.15,ESE,114,0.0,0.0,95,0.00,,,0.00,WUHU216PEETBRO,2013-06-25 07:43:00,
2013-06-25 03:48:00,75.9,74.3,30.15,ESE,114,0.0,0.0,95,0.00,,,0.00,WUHU216PEETBRO,2013-06-25 07:48:00,
2013-06-25 03:53:00,75.9,74.3,30.14,ESE,114,0.0,0.0,95,0.00,,,0.00,WUHU216PEETBRO,2013-06-25 07:53:00,
2013-06-25 03:58:00,75.8,74.1,30.14,ESE,114,0.0,0.0,95,0.00,,,0.00,WUHU216PEETBRO,2013-06-25 07:58:00,
2013-06-25 04:03:00,75.9,74.2,30.14,ESE,114,0.0,0.0,95,0.00,,,0.00,WUHU216PEETBRO,2013-06-25 08:03:00,
2013-06-25 04:08:00,75.9,74.3,30.14,ESE,114,0.0,0.0,95,0.00,,,0.00,WUHU216PEETBRO,2013-06-25 08:08:00,
2013-06-25 04:13:00,76.0,74.3,30.14,ESE,114,0.0,0.0,95,0.00,,,0.00,WUHU216PEETBRO,2013-06-25 08:13:00,
2013-06-25 04:18:00,75.9,74.2,30.14,ESE,114,0.0,0.0,95,0.00,,,0.00,WUHU216PEETBRO,2013-06-25 08:18:00,
2013-06-25 04:23:00,75.9,74.2,30.14,ESE,114,0.0,0.0,95,0.00,,,0.00,WUHU216PEETBRO,2013-06-25 08:23:00,
2013-06-25 04:28:00,75.9,74.3,30.14,ESE,114,0.0,0.0,95,0.00,,,0.00,WUHU216PEETBRO,2013-06-25 08:28:00,
2013-06-25 04:33:00,75.9,74.3,30.14,ESE,114,0.0,0.0,95,0.00,,,0.00,WUHU216PEETBRO,2013-06-25 08:33:00,
2013-06-25 04:38:00,75.9,74.2,30.14,ESE,114,0.0,0.0,95,0.00,,,0.00,WUHU216PEETBRO,2013-06-25 08:38:00,
2013-06-25 04:43:00,75.8,74.2,30.14,ESE,114,0.0,0.0,95,0.00,,,0.00,WUHU216PEETBRO,2013-06-25 08:43:00,
2013-06-25 04:48:00,75.8,74.2,30.14,SE,132,0.0,3.0,95,0.00,,,0.00,WUHU216PEETBRO,2013-06-25 08:48:00,
2013-06-25 04:53:00,75.8,74.2,30.13,SE,132,0.0,3.0,95,0.00,,,0.00,WUHU216PEETBRO,2013-06-25 08:53:00,
2013-06-25 04:58:00,75.8,74.2,30.13,SE,132,0.0,0.0,95,0.00,,,0.00,WUHU216PEETBRO,2013-06-25 08:58:00,
2013-06-25 05:03:00,75.8,74.2,30.13,SE,132,0.0,0.0,95,0.00,,,0.00,WUHU216PEETBRO,2013-06-25 09:03:00,
2013-06-25 05:08:00,75.7,74.1,30.13,SE,132,0.0,0.0,95,0.00,,,0.00,WUHU216PEETBRO,2013-06-25 09:08:00,
2013-06-25 05:13:00,75.7,74.1,30.13,SE,132,0.0,0.0,95,0.00,,,0.00,WUHU216PEETBRO,2013-06-25 09:13:00,
2013-06-25 05:18:00,75.7,74.1,30.13,SE,132,0.0,0.0,95,0.00,,,0.00,WUHU216PEETBRO,2013-06-25 09:18:00,
2013-06-25 05:23:00,75.7,74.1,30.13,SE,132,0.0,0.0,95,0.00,,,0.00,WUHU216PEETBRO,2013-06-25 09:23:00,
2013-06-25 05:28:00,75.5,73.9,30.14,SE,132,0.0,0.0,95,0.00,,,0.00,WUHU216PEETBRO,2013-06-25 09:28:00,
2013-06-25 05:33:00,75.5,73.9,30.14,SE,132,0.0,0.0,95,0.00,,,0.00,WUHU216PEETBRO,2013-06-25 09:33:00,
2013-06-25 05:38:00,75.4,73.9,30.14,SE,132,0.0,0.0,95,0.00,,,0.00,WUHU216PEETBRO,2013-06-25 09:38:00,
2013-06-25 05:43:00,75.3,73.7,30.14,SE,132,0.0,0.0,95,0.00,,,0.00,WUHU216PEETBRO,2013-06-25 09:43:00,
2013-06-25 05:48:00,75.3,73.8,30.14,SE,132,0.0,0.0,95,0.00,,,0.00,WUHU216PEETBRO,2013-06-25 09:48:00,
2013-06-25 05:53:00,75.2,73.7,30.14,SE,132,0.0,0.0,95,0.00,,,0.00,WUHU216PEETBRO,2013-06-25 09:53:00,
2013-06-25 05:58:00,75.1,73.6,30.14,SE,132,0.0,0.0,95,0.00,,,0.00,WUHU216PEETBRO,2013-06-25 09:58:00,
2013-06-25 06:03:00,75.0,73.5,30.14,SE,132,0.0,0.0,95,0.00,,,0.00,WUHU216PEETBRO,2013-06-25 10:03:00,
2013-06-25 06:08:00,75.1,73.7,30.14,SE,132,0.0,0.0,96,0.00,,,0.00,WUHU216PEETBRO,2013-06-25 10:08:00,
2013-06-25 06:13:00,75.2,73.9,30.14,SE,132,0.0,0.0,96,0.00,,,0.00,WUHU216PEETBRO,2013-06-25 10:13:00,
2013-06-25 06:18:00,75.3,74.0,30.14,SE,132,0.0,0.0,96,0.00,,,0.00,WUHU216PEETBRO,2013-06-25 10:18:00,
2013-06-25 06:23:00,75.3,73.9,30.14,SE,132,0.0,0.0,96,0.00,,,0.00,WUHU216PEETBRO,2013-06-25 10:23:00,
2013-06-25 06:28:00,75.1,73.7,30.14,SE,132,0.0,0.0,96,0.00,,,0.00,WUHU216PEETBRO,2013-06-25 10:28:00,
2013-06-25 06:33:00,74.9,73.5,30.14,SE,132,0.0,0.0,96,0.00,,,0.00,WUHU216PEETBRO,2013-06-25 10:33:00,
2013-06-25 06:38:00,74.9,73.6,30.15,SE,132,0.0,0.0,96,0.00,,,0.00,WUHU216PEETBRO,2013-06-25 10:38:00,
2013-06-25 06:43:00,74.8,73.5,30.15,SE,132,0.0,0.0,96,0.00,,,0.00,WUHU216PEETBRO,2013-06-25 10:43:00,
2013-06-25 06:48:00,74.7,73.4,30.15,SE,132,0.0,0.0,96,0.00,,,0.00,WUHU216PEETBRO,2013-06-25 10:48:00,
2013-06-25 06:53:00,74.8,73.5,30.15,SE,132,0.0,0.0,96,0.00,,,0.00,WUHU216PEETBRO,2013-06-25 10:53:00,
2013-06-25 06:58:00,74.7,73.4,30.15,SE,132,0.0,0.0,96,0.00,,,0.00,WUHU216PEETBRO,2013-06-25 10:58:00,
2013-06-25 07:03:00,74.7,73.5,30.15,SE,132,0.0,0.0,96,0.00,,,0.00,WUHU216PEETBRO,2013-06-25 11:03:00,
2013-06-25 07:08:00,75.0,73.8,30.15,SE,132,0.0,0.0,96,0.00,,,0.00,WUHU216PEETBRO,2013-06-25 11:08:00,
2013-06-25 07:13:00,75.1,73.9,30.15,SE,132,0.0,0.0,96,0.00,,,0.00,WUHU216PEETBRO,2013-06-25 11:13:00,
2013-06-25 07:18:00,75.1,73.9,30.16,SE,132,0.0,0.0,96,0.00,,,0.00,WUHU216PEETBRO,2013-06-25 11:18:00,
2013-06-25 07:23:00,75.5,74.3,30.16,SE,132,0.0,0.0,96,0.00,,,0.00,WUHU216PEETBRO,2013-06-25 11:23:00,
2013-06-25 07:28:00,75.8,74.6,30.16,SE,132,0.0,0.0,96,0.00,,,0.00,WUHU216PEETBRO,2013-06-25 11:28:00,
2013-06-25 07:33:00,75.9,74.7,30.16,SE,132,0.0,0.0,96,0.00,,,0.00,WUHU216PEETBRO,2013-06-25 11:33:00,
2013-06-25 07:38:00,76.2,74.9,30.16,SE,132,0.0,0.0,96,0.00,,,0.00,WUHU216PEETBRO,2013-06-25 11:38:00,
2013-06-25 07:43:00,76.5,75.2,30.16,SE,132,0.0,0.0,96,0.00,,,0.00,WUHU216PEETBRO,2013-06-25 11:43:00,
2013-06-25 07:48:00,76.7,75.2,30.16,SE,132,0.0,0.0,95,0.00,,,0.00,WUHU216PEETBRO,2013-06-25 11:48:00,
2013-06-25 07:53:00,76.8,75.3,30.17,SE,132,0.0,0.0,95,0.00,,,0.00,WUHU216PEETBRO,2013-06-25 11:53:00,
2013-06-25 07:58:00,77.1,75.5,30.17,SE,132,0.0,0.0,95,0.00,,,0.00,WUHU216PEETBRO,2013-06-25 11:58:00,
2013-06-25 08:03:00,77.4,75.7,30.17,SE,132,0.0,0.0,95,0.00,,,0.00,WUHU216PEETBRO,2013-06-25 12:03:00,
2013-06-25 08:08:00,78.0,76.1,30.17,SE,132,0.0,0.0,94,0.00,,,0.00,WUHU216PEETBRO,2013-06-25 12:08:00,
2013-06-25 08:13:00,78.5,76.4,30.17,SE,132,0.0,0.0,94,0.00,,,0.00,WUHU216PEETBRO,2013-06-25 12:13:00,
2013-06-25 08:18:00,79.0,76.8,30.17,NNE,33,3.3,4.2,93,0.00,,,0.00,WUHU216PEETBRO,2013-06-25 12:18:00,
2013-06-25 08:23:00,79.5,77.1,30.18,NNE,25,0.0,4.2,93,0.00,,,0.00,WUHU216PEETBRO,2013-06-25 12:23:00,
2013-06-25 08:28:00,79.8,77.0,30.18,SSE,163,0.0,3.3,91,0.00,,,0.00,WUHU216PEETBRO,2013-06-25 12:28:00,
2013-06-25 08:33:00,80.2,77.3,30.18,ESE,119,0.0,6.3,91,0.00,,,0.00,WUHU216PEETBRO,2013-06-25 12:33:00,
2013-06-25 08:38:00,80.3,76.6,30.18,ENE,67,0.0,6.3,88,0.00,,,0.00,WUHU216PEETBRO,2013-06-25 12:38:00,
2013-06-25 08:43:00,80.3,76.4,30.18,SE,134,0.0,5.4,88,0.00,,,0.00,WUHU216PEETBRO,2013-06-25 12:43:00,
2013-06-25 08:48:00,80.8,76.1,30.18,SE,134,0.0,2.2,86,0.00,,,0.00,WUHU216PEETBRO,2013-06-25 12:48:00,
2013-06-25 08:53:00,81.4,76.1,30.18,SSE,159,6.0,6.0,84,0.00,,,0.00,WUHU216PEETBRO,2013-06-25 12:53:00,
2013-06-25 08:58:00,81.6,75.7,30.18,East,94,0.0,6.1,82,0.00,,,0.00,WUHU216PEETBRO,2013-06-25 12:58:00,
2013-06-25 09:03:00,81.9,75.1,30.18,East,94,0.0,6.1,80,0.00,,,0.00,WUHU216PEETBRO,2013-06-25 13:03:00,
2013-06-25 09:08:00,82.0,74.9,30.18,ENE,60,0.0,6.2,79,0.00,,,0.00,WUHU216PEETBRO,2013-06-25 13:08:00,
2013-06-25 09:13:00,82.4,75.0,30.18,East,86,0.0,6.2,78,0.00,,,0.00,WUHU216PEETBRO,2013-06-25 13:13:00,
2013-06-25 09:18:00,82.7,74.4,30.18,ESE,104,0.0,4.7,76,0.00,,,0.00,WUHU216PEETBRO,2013-06-25 13:18:00,
2013-06-25 09:23:00,82.5,73.6,30.18,ESE,104,0.0,4.6,74,0.00,,,0.00,WUHU216PEETBRO,2013-06-25 13:23:00,
2013-06-25 09:28:00,83.0,74.1,30.18,SSE,160,9.2,9.2,74,0.00,,,0.00,WUHU216PEETBRO,2013-06-25 13:28:00,
2013-06-25 09:33:00,83.0,73.2,30.18,ESE,111,3.2,9.2,72,0.00,,,0.00,WUHU216PEETBRO,2013-06-25 13:33:00,
2013-06-25 09:38:00,82.9,72.6,30.19,SE,134,0.0,6.8,71,0.00,,,0.00,WUHU216PEETBRO,2013-06-25 13:38:00,
2013-06-25 09:43:00,82.6,72.6,30.18,NE,56,0.0,5.3,71,0.00,,,0.00,WUHU216PEETBRO,2013-06-25 13:43:00,
2013-06-25 09:48:00,82.7,72.9,30.19,SE,135,0.0,4.3,72,0.00,,,0.00,WUHU216PEETBRO,2013-06-25 13:48:00,
2013-06-25 09:53:00,83.2,73.2,30.18,East,97,2.7,3.4,71,0.00,,,0.00,WUHU216PEETBRO,2013-06-25 13:53:00,
2013-06-25 09:58:00,83.7,72.9,30.19,East,91,0.0,6.6,70,0.00,,,0.00,WUHU216PEETBRO,2013-06-25 13:58:00,
2013-06-25 10:03:00,84.3,73.1,30.18,NE,42,3.3,6.6,69,0.00,,,0.00,WUHU216PEETBRO,2013-06-25 14:03:00,
2013-06-25 10:08:00,84.7,72.0,30.18,ENE,60,8.0,8.0,65,0.00,,,0.00,WUHU216PEETBRO,2013-06-25 14:08:00,
2013-06-25 10:13:00,85.2,71.6,30.18,East,95,4.2,8.0,63,0.00,,,0.00,WUHU216PEETBRO,2013-06-25 14:13:00,
2013-06-25 10:18:00,85.0,71.1,30.18,ESE,119,4.8,7.9,63,0.00,,,0.00,WUHU216PEETBRO,2013-06-25 14:18:00,
2013-06-25 10:23:00,84.7,71.0,30.18,NE,53,4.8,7.0,63,0.00,,,0.00,WUHU216PEETBRO,2013-06-25 14:23:00,
2013-06-25 10:28:00,84.7,70.7,30.18,ESE,115,0.0,6.4,62,0.00,,,0.00,WUHU216PEETBRO,2013-06-25 14:28:00,
2013-06-25 10:33:00,85.0,70.4,30.18,West,279,3.5,6.0,61,0.00,,,0.00,WUHU216PEETBRO,2013-06-25 14:33:00,
2013-06-25 10:38:00,85.5,69.9,30.18,WNW,303,0.0,3.5,59,0.00,,,0.00,WUHU216PEETBRO,2013-06-25 14:38:00,
2013-06-25 10:43:00,86.3,69.5,30.18,NNE,31,0.0,5.0,57,0.00,,,0.00,WUHU216PEETBRO,2013-06-25 14:43:00,
2013-06-25 10:48:00,86.9,69.1,30.18,NE,36,5.4,6.8,55,0.00,,,0.00,WUHU216PEETBRO,2013-06-25 14:48:00,
2013-06-25 10:53:00,87.3,69.3,30.18,NE,47,0.0,6.8,55,0.00,,,0.00,WUHU216PEETBRO,2013-06-25 14:53:00,
2013-06-25 10:58:00,87.3,69.2,30.18,East,95,4.3,6.6,55,0.00,,,0.00,WUHU216PEETBRO,2013-06-25 14:58:00,
2013-06-25 11:03:00,87.4,70.0,30.18,NNE,21,0.0,5.3,56,0.00,,,0.00,WUHU216PEETBRO,2013-06-25 15:03:00,
2013-06-25 11:08:00,87.9,68.6,30.18,ENE,69,3.2,8.4,53,0.00,,,0.00,WUHU216PEETBRO,2013-06-25 15:08:00,
2013-06-25 11:13:00,88.2,68.6,30.18,NE,43,7.9,8.4,52,0.00,,,0.00,WUHU216PEETBRO,2013-06-25 15:13:00,
2013-06-25 11:18:00,87.9,69.9,30.18,North,4,3.2,7.9,55,0.00,,,0.00,WUHU216PEETBRO,2013-06-25 15:18:00,
2013-06-25 11:23:00,87.9,68.3,30.18,NE,38,3.3,6.5,52,0.00,,,0.00,WUHU216PEETBRO,2013-06-25 15:23:00,
2013-06-25 11:28:00,87.8,69.8,30.18,NNE,22,0.0,6.0,55,0.00,,,0.00,WUHU216PEETBRO,2013-06-25 15:28:00,
2013-06-25 11:33:00,87.5,71.9,30.18,NE,56,4.7,7.8,59,0.00,,,0.00,WUHU216PEETBRO,2013-06-25 15:33:00,
2013-06-25 11:38:00,87.4,71.4,30.17,NE,35,3.0,7.8,59,0.00,,,0.00,WUHU216PEETBRO,2013-06-25 15:38:00,
2013-06-25 11:43:00,87.6,69.9,30.17,WSW,242,3.5,7.0,56,0.00,,,0.00,WUHU216PEETBRO,2013-06-25 15:43:00,
2013-06-25 11:49:00,88.2,70.4,30.17,East,87,0.0,6.7,55,0.00,,,0.00,WUHU216PEETBRO,2013-06-25 15:49:00,
2013-06-25 11:54:00,87.8,70.4,30.17,NE,56,0.0,6.7,56,0.00,,,0.00,WUHU216PEETBRO,2013-06-25 15:54:00,
2013-06-25 11:58:00,87.6,71.5,30.17,SE,128,5.3,5.4,59,0.00,,,0.00,WUHU216PEETBRO,2013-06-25 15:58:00,
2013-06-25 12:03:00,87.3,71.4,30.17,ESE,122,0.0,5.4,59,0.00,,,0.00,WUHU216PEETBRO,2013-06-25 16:03:00,
2013-06-25 12:09:00,87.6,71.5,30.17,SE,136,6.0,6.0,58,0.00,,,0.00,WUHU216PEETBRO,2013-06-25 16:09:00,
2013-06-25 12:14:00,87.7,71.2,30.16,North,1,0.0,6.0,58,0.00,,,0.00,WUHU216PEETBRO,2013-06-25 16:14:00,
2013-06-25 12:19:00,88.0,70.3,30.16,North,1,5.0,8.0,55,0.00,,,0.00,WUHU216PEETBRO,2013-06-25 16:19:00,
2013-06-25 12:24:00,88.1,69.7,30.16,NE,38,3.2,8.0,54,0.00,,,0.00,WUHU216PEETBRO,2013-06-25 16:24:00,
2013-06-25 12:29:00,88.7,69.5,30.16,WNW,293,0.0,6.8,53,0.00,,,0.00,WUHU216PEETBRO,2013-06-25 16:29:00,
2013-06-25 12:34:00,88.8,70.5,30.16,WNW,293,4.2,6.4,54,0.00,,,0.00,WUHU216PEETBRO,2013-06-25 16:34:00,
2013-06-25 12:39:00,88.4,70.5,30.16,West,268,0.0,6.1,55,0.00,,,0.00,WUHU216PEETBRO,2013-06-25 16:39:00,
2013-06-25 12:44:00,88.8,70.0,30.16,NNW,337,3.5,6.1,54,0.00,,,0.00,WUHU216PEETBRO,2013-06-25 16:44:00,
2013-06-25 12:49:00,88.7,69.9,30.16,NW,316,0.0,5.9,54,0.00,,,0.00,WUHU216PEETBRO,2013-06-25 16:49:00,
2013-06-25 12:54:00,88.6,69.9,30.16,NNE,31,0.0,6.2,54,0.00,,,0.00,WUHU216PEETBRO,2013-06-25 16:54:00,
2013-06-25 12:59:00,88.3,69.8,30.16,NE,35,0.0,6.2,54,0.00,,,0.00,WUHU216PEETBRO,2013-06-25 16:59:00,
2013-06-25 13:04:00,88.5,70.3,30.16,North,4,0.0,5.1,55,0.00,,,0.00,WUHU216PEETBRO,2013-06-25 17:04:00,
2013-06-25 13:09:00,88.4,70.5,30.16,ENE,63,3.4,7.1,55,0.00,,,0.00,WUHU216PEETBRO,2013-06-25 17:09:00,
2013-06-25 13:14:00,88.9,71.7,30.16,NE,56,11.4,11.4,56,0.00,,,0.00,WUHU216PEETBRO,2013-06-25 17:14:00,
2013-06-25 13:19:00,87.6,73.4,30.16,ENE,70,9.7,15.6,62,0.00,,,0.00,WUHU216PEETBRO,2013-06-25 17:19:00,
2013-06-25 13:23:00,86.5,74.4,30.16,ENE,71,4.8,15.6,67,0.00,,,0.00,WUHU216PEETBRO,2013-06-25 17:23:00,
2013-06-25 13:28:00,86.1,74.7,30.16,North,0,10.6,14.0,68,0.00,,,0.00,WUHU216PEETBRO,2013-06-25 17:28:00,
2013-06-25 13:34:00,86.0,74.6,30.16,NE,45,11.9,14.0,68,0.00,,,0.00,WUHU216PEETBRO,2013-06-25 17:34:00,
2013-06-25 13:39:00,86.2,73.9,30.15,ENE,62,10.4,13.4,66,0.00,,,0.00,WUHU216PEETBRO,2013-06-25 17:39:00,
2013-06-25 13:44:00,86.6,73.3,30.15,NE,56,8.3,13.8,64,0.00,,,0.00,WUHU216PEETBRO,2013-06-25 17:44:00,
2013-06-25 13:49:00,87.8,73.9,30.15,East,93,7.0,14.9,63,0.00,,,0.00,WUHU216PEETBRO,2013-06-25 17:49:00,
2013-06-25 13:54:00,88.4,72.9,30.15,NE,55,8.8,14.9,60,0.00,,,0.00,WUHU216PEETBRO,2013-06-25 17:54:00,
2013-06-25 13:59:00,88.6,73.2,30.15,NE,36,6.8,14.4,60,0.00,,,0.00,WUHU216PEETBRO,2013-06-25 17:59:00,
2013-06-25 14:04:00,89.1,72.8,30.15,NNE,21,5.7,12.6,58,0.00,,,0.00,WUHU216PEETBRO,2013-06-25 18:04:00,
2013-06-25 14:09:00,88.6,73.5,30.14,ENE,76,6.2,11.0,61,0.00,,,0.00,WUHU216PEETBRO,2013-06-25 18:09:00,
2013-06-25 14:14:00,88.9,74.5,30.14,NNE,25,7.9,12.2,62,0.00,,,0.00,WUHU216PEETBRO,2013-06-25 18:14:00,
2013-06-25 14:19:00,88.4,74.9,30.14,East,80,7.5,12.2,64,0.00,,,0.00,WUHU216PEETBRO,2013-06-25 18:19:00,
2013-06-25 14:24:00,88.2,75.5,30.14,ENE,69,8.5,12.0,66,0.00,,,0.00,WUHU216PEETBRO,2013-06-25 18:24:00,
2013-06-25 14:29:00,87.8,75.5,30.14,ESE,110,6.2,14.0,67,0.00,,,0.00,WUHU216PEETBRO,2013-06-25 18:29:00,
2013-06-25 14:34:00,87.1,76.8,30.14,NE,53,5.3,14.0,71,0.00,,,0.00,WUHU216PEETBRO,2013-06-25 18:34:00,
2013-06-25 14:39:00,86.2,77.1,30.14,East,80,3.4,12.6,74,0.00,,,0.00,WUHU216PEETBRO,2013-06-25 18:39:00,
2013-06-25 14:44:00,86.0,75.5,30.14,NE,36,6.9,10.4,71,0.00,,,0.00,WUHU216PEETBRO,2013-06-25 18:44:00,
2013-06-25 14:49:00,87.0,76.4,30.14,ENE,64,5.9,9.3,70,0.00,,,0.00,WUHU216PEETBRO,2013-06-25 18:49:00,
2013-06-25 14:54:00,87.8,74.0,30.14,ENE,60,9.4,9.9,63,0.00,,,0.00,WUHU216PEETBRO,2013-06-25 18:54:00,
2013-06-25 14:59:00,88.2,73.3,30.14,ENE,74,4.7,9.9,61,0.00,,,0.00,WUHU216PEETBRO,2013-06-25 18:59:00,
2013-06-25 15:04:00,88.5,73.9,30.14,ENE,63,4.3,10.6,62,0.00,,,0.00,WUHU216PEETBRO,2013-06-25 19:04:00,
2013-06-25 15:09:00,88.4,72.5,30.14,NE,56,4.5,10.6,59,0.00,,,0.00,WUHU216PEETBRO,2013-06-25 19:09:00,
2013-06-25 15:14:00,89.2,74.0,30.13,East,81,0.0,9.4,60,0.00,,,0.00,WUHU216PEETBRO,2013-06-25 19:14:00,
2013-06-25 15:19:00,89.7,73.1,30.13,NE,52,5.3,10.8,58,0.00,,,0.00,WUHU216PEETBRO,2013-06-25 19:19:00,
2013-06-25 15:24:00,89.7,73.9,30.13,SE,141,4.9,10.8,59,0.00,,,0.00,WUHU216PEETBRO,2013-06-25 19:24:00,
2013-06-25 15:29:00,89.6,72.4,30.13,NE,39,8.1,11.5,57,0.00,,,0.00,WUHU216PEETBRO,2013-06-25 19:29:00,
2013-06-25 15:34:00,89.6,72.5,30.13,NNE,21,4.3,11.5,57,0.00,,,0.00,WUHU216PEETBRO,2013-06-25 19:34:00,
2013-06-25 15:39:00,89.8,73.3,30.13,NE,50,6.6,11.4,58,0.00,,,0.00,WUHU216PEETBRO,2013-06-25 19:39:00,
2013-06-25 15:44:00,89.9,72.7,30.12,North,9,9.1,11.4,57,0.00,,,0.00,WUHU216PEETBRO,2013-06-25 19:44:00,
2013-06-25 15:49:00,89.7,72.5,30.12,NE,38,9.1,13.4,57,0.00,,,0.00,WUHU216PEETBRO,2013-06-25 19:49:00,
2013-06-25 15:54:00,89.4,72.1,30.12,NNE,31,8.3,13.4,56,0.00,,,0.00,WUHU216PEETBRO,2013-06-25 19:54:00,
2013-06-25 15:59:00,88.9,73.8,30.12,NE,45,12.2,13.4,61,0.00,,,0.00,WUHU216PEETBRO,2013-06-25 19:59:00,
2013-06-25 16:04:00,88.3,74.5,30.12,ENE,69,5.5,13.4,63,0.00,,,0.00,WUHU216PEETBRO,2013-06-25 20:04:00,
2013-06-25 16:09:00,87.4,73.6,30.12,SE,135,8.5,13.0,63,0.00,,,0.00,WUHU216PEETBRO,2013-06-25 20:09:00,
2013-06-25 16:14:00,87.4,74.6,30.11,ENE,57,4.9,14.2,65,0.00,,,0.00,WUHU216PEETBRO,2013-06-25 20:14:00,
2013-06-25 16:19:00,88.3,73.2,30.11,NE,35,11.4,14.2,61,0.00,,,0.00,WUHU216PEETBRO,2013-06-25 20:19:00,
2013-06-25 16:24:00,89.1,73.0,30.11,East,80,7.9,11.9,59,0.00,,,0.00,WUHU216PEETBRO,2013-06-25 20:24:00,
2013-06-25 16:29:00,89.6,72.8,30.10,ENE,66,7.1,10.7,57,0.00,,,0.00,WUHU216PEETBRO,2013-06-25 20:29:00,
2013-06-25 16:34:00,90.0,72.8,30.10,NE,52,7.9,9.6,57,0.00,,,0.00,WUHU216PEETBRO,2013-06-25 20:34:00,
2013-06-25 16:39:00,89.6,72.2,30.10,ENE,69,8.1,12.1,56,0.00,,,0.00,WUHU216PEETBRO,2013-06-25 20:39:00,
2013-06-25 16:44:00,88.2,73.4,30.09,ESE,110,3.1,12.1,61,0.00,,,0.00,WUHU216PEETBRO,2013-06-25 20:44:00,
2013-06-25 16:49:00,88.3,72.3,30.10,SE,138,7.0,14.9,59,0.00,,,0.00,WUHU216PEETBRO,2013-06-25 20:49:00,
2013-06-25 16:54:00,88.1,71.6,30.10,East,98,6.5,14.9,58,0.00,,,0.00,WUHU216PEETBRO,2013-06-25 20:54:00,
2013-06-25 16:59:00,88.2,72.3,30.09,NNE,29,5.2,16.7,59,0.00,,,0.00,WUHU216PEETBRO,2013-06-25 20:59:00,
2013-06-25 17:04:00,88.0,71.5,30.09,SE,143,8.9,16.7,58,0.00,,,0.00,WUHU216PEETBRO,2013-06-25 21:04:00,
2013-06-25 17:09:00,87.6,71.8,30.09,NE,46,7.0,13.7,59,0.00,,,0.00,WUHU216PEETBRO,2013-06-25 21:09:00,
2013-06-25 17:14:00,87.5,71.4,30.09,NNE,33,11.8,12.2,58,0.00,,,0.00,WUHU216PEETBRO,2013-06-25 21:14:00,
2013-06-25 17:19:00,87.8,70.9,30.10,NE,56,12.2,14.0,57,0.00,,,0.00,WUHU216PEETBRO,2013-06-25 21:19:00,
2013-06-25 17:24:00,88.3,70.9,30.09,NE,43,8.6,14.0,56,0.00,,,0.00,WUHU216PEETBRO,2013-06-25 21:24:00,
2013-06-25 17:29:00,88.7,70.4,30.09,East,80,8.8,12.4,55,0.00,,,0.00,WUHU216PEETBRO,2013-06-25 21:29:00,
2013-06-25 17:34:00,88.5,71.5,30.09,ENE,62,7.9,13.0,57,0.00,,,0.00,WUHU216PEETBRO,2013-06-25 21:34:00,
2013-06-25 17:39:00,88.2,70.6,30.10,ESE,107,4.8,13.6,56,0.00,,,0.00,WUHU216PEETBRO,2013-06-25 21:39:00,
2013-06-25 17:44:00,87.4,70.4,30.09,NE,42,9.5,13.6,57,0.00,,,0.00,WUHU216PEETBRO,2013-06-25 21:44:00,
2013-06-25 17:49:00,87.3,72.1,30.09,NE,52,11.2,12.8,60,0.00,,,0.00,WUHU216PEETBRO,2013-06-25 21:49:00,
2013-06-25 17:54:00,87.7,70.6,30.09,NE,56,9.1,12.8,57,0.00,,,0.00,WUHU216PEETBRO,2013-06-25 21:54:00,
2013-06-25 17:59:00,87.3,68.8,30.09,NE,38,10.7,11.7,54,0.00,,,0.00,WUHU216PEETBRO,2013-06-25 21:59:00,
2013-06-25 18:04:00,86.8,69.2,30.09,ESE,111,9.9,11.7,56,0.00,,,0.00,WUHU216PEETBRO,2013-06-25 22:04:00,
2013-06-25 18:09:00,86.7,69.7,30.09,NE,55,5.6,11.7,57,0.00,,,0.00,WUHU216PEETBRO,2013-06-25 22:09:00,
2013-06-25 18:14:00,87.1,68.0,30.09,NE,55,12.2,12.2,53,0.00,,,0.00,WUHU216PEETBRO,2013-06-25 22:14:00,
2013-06-25 18:19:00,87.4,67.3,30.09,East,90,7.8,12.9,51,0.00,,,0.00,WUHU216PEETBRO,2013-06-25 22:19:00,
2013-06-25 18:24:00,87.3,66.2,30.10,East,81,4.7,12.9,49,0.00,,,0.00,WUHU216PEETBRO,2013-06-25 22:24:00,
2013-06-25 18:29:00,87.3,66.2,30.10,SSE,151,8.1,11.9,49,0.00,,,0.00,WUHU216PEETBRO,2013-06-25 22:29:00,
2013-06-25 18:34:00,87.1,65.3,30.09,ENE,64,6.3,11.9,48,0.00,,,0.00,WUHU216PEETBRO,2013-06-25 22:34:00,
2013-06-25 18:39:00,87.2,65.6,30.10,ENE,77,7.8,12.3,49,0.00,,,0.00,WUHU216PEETBRO,2013-06-25 22:39:00,
2013-06-25 18:44:00,87.1,65.9,30.10,SSW,199,7.8,13.0,49,0.00,,,0.00,WUHU216PEETBRO,2013-06-25 22:44:00,
2013-06-25 18:49:00,86.9,66.4,30.09,NE,43,5.2,13.0,50,0.00,,,0.00,WUHU216PEETBRO,2013-06-25 22:49:00,
2013-06-25 18:54:00,86.8,66.5,30.10,ENE,64,9.5,12.1,51,0.00,,,0.00,WUHU216PEETBRO,2013-06-25 22:54:00,
2013-06-25 18:59:00,86.6,65.7,30.10,ESE,112,8.8,12.1,50,0.00,,,0.00,WUHU216PEETBRO,2013-06-25 22:59:00,
2013-06-25 19:04:00,86.4,65.8,30.10,East,81,3.3,13.7,50,0.00,,,0.00,WUHU216PEETBRO,2013-06-25 23:04:00,
2013-06-25 19:09:00,86.0,66.1,30.10,NNE,28,6.8,13.7,51,0.00,,,0.00,WUHU216PEETBRO,2013-06-25 23:09:00,
2013-06-25 19:14:00,85.8,66.9,30.10,SE,136,2.8,12.6,53,0.00,,,0.00,WUHU216PEETBRO,2013-06-25 23:14:00,
2013-06-25 19:19:00,85.5,67.4,30.11,ENE,62,4.7,12.6,54,0.00,,,0.00,WUHU216PEETBRO,2013-06-25 23:19:00,
2013-06-25 19:24:00,85.6,68.2,30.11,NE,56,6.0,11.8,56,0.00,,,0.00,WUHU216PEETBRO,2013-06-25 23:24:00,
2013-06-25 19:29:00,85.6,68.8,30.11,ESE,122,3.3,12.6,57,0.00,,,0.00,WUHU216PEETBRO,2013-06-25 23:29:00,
2013-06-25 19:34:00,85.5,69.7,30.11,East,80,9.8,12.6,59,0.00,,,0.00,WUHU216PEETBRO,2013-06-25 23:34:00,
2013-06-25 19:39:00,85.2,70.3,30.11,NE,49,9.4,9.8,61,0.00,,,0.00,WUHU216PEETBRO,2013-06-25 23:39:00,
2013-06-25 19:44:00,84.9,71.0,30.11,East,90,0.0,10.6,63,0.00,,,0.00,WUHU216PEETBRO,2013-06-25 23:44:00,
2013-06-25 19:49:00,84.6,71.3,30.12,NNE,22,8.1,11.5,64,0.00,,,0.00,WUHU216PEETBRO,2013-06-25 23:49:00,
2013-06-25 19:54:00,84.4,71.6,30.12,ESE,110,5.9,11.5,65,0.00,,,0.00,WUHU216PEETBRO,2013-06-25 23:54:00,
2013-06-25 19:59:00,84.3,71.8,30.12,East,90,5.7,8.8,66,0.00,,,0.00,WUHU216PEETBRO,2013-06-25 23:59:00,
2013-06-25 20:04:00,83.8,71.9,30.12,East,84,2.9,8.8,67,0.00,,,0.00,WUHU216PEETBRO,2013-06-26 00:04:00,
2013-06-25 20:09:00,83.5,71.8,30.12,ENE,60,3.0,10.2,67,0.00,,,0.00,WUHU216PEETBRO,2013-06-26 00:09:00,
2013-06-25 20:14:00,83.3,71.8,30.12,East,95,8.2,10.2,68,0.00,,,0.00,WUHU216PEETBRO,2013-06-26 00:14:00,
2013-06-25 20:19:00,83.0,71.8,30.12,East,81,3.2,9.8,68,0.00,,,0.00,WUHU216PEETBRO,2013-06-26 00:19:00,
2013-06-25 20:24:00,82.8,71.9,30.12,SE,128,0.0,9.8,69,0.00,,,0.00,WUHU216PEETBRO,2013-06-26 00:24:00,
2013-06-25 20:29:00,82.7,72.1,30.12,NNE,32,4.3,5.1,70,0.00,,,0.00,WUHU216PEETBRO,2013-06-26 00:29:00,
2013-06-25 20:34:00,82.7,72.5,30.12,NE,52,0.0,6.6,71,0.00,,,0.00,WUHU216PEETBRO,2013-06-26 00:34:00,
2013-06-25 20:39:00,82.4,72.6,30.12,NE,43,6.0,7.0,72,0.00,,,0.00,WUHU216PEETBRO,2013-06-26 00:39:00,
2013-06-25 20:44:00,82.4,72.8,30.12,NE,45,3.3,7.8,72,0.00,,,0.00,WUHU216PEETBRO,2013-06-26 00:44:00,
2013-06-25 20:49:00,82.2,73.0,30.12,NE,47,5.8,7.8,73,0.00,,,0.00,WUHU216PEETBRO,2013-06-26 00:49:00,
2013-06-25 20:54:00,82.0,73.0,30.12,NE,46,6.1,7.3,74,0.00,,,0.00,WUHU216PEETBRO,2013-06-26 00:54:00,
2013-06-25 20:59:00,81.8,73.1,30.12,ENE,73,0.0,7.8,74,0.00,,,0.00,WUHU216PEETBRO,2013-06-26 00:59:00,
2013-06-25 21:04:00,81.5,73.0,30.12,NE,40,0.0,7.8,75,0.00,,,0.00,WUHU216PEETBRO,2013-06-26 01:04:00,
2013-06-25 21:09:00,81.4,73.2,30.12,NE,53,5.3,6.0,76,0.00,,,0.00,WUHU216PEETBRO,2013-06-26 01:09:00,
2013-06-25 21:14:00,81.4,73.5,30.12,NNE,32,3.5,6.6,77,0.00,,,0.00,WUHU216PEETBRO,2013-06-26 01:14:00,
2013-06-25 21:19:00,81.4,73.8,30.12,ENE,62,0.0,6.6,78,0.00,,,0.00,WUHU216PEETBRO,2013-06-26 01:19:00,
2013-06-25 21:24:00,81.0,73.6,30.12,SE,134,0.0,3.4,78,0.00,,,0.00,WUHU216PEETBRO,2013-06-26 01:24:00,
2013-06-25 21:29:00,81.0,74.0,30.12,SE,134,0.0,3.1,79,0.00,,,0.00,WUHU216PEETBRO,2013-06-26 01:29:00,
2013-06-25 21:34:00,80.8,74.1,30.12,NE,40,4.9,4.9,80,0.00,,,0.00,WUHU216PEETBRO,2013-06-26 01:34:00,
2013-06-25 21:39:00,80.4,73.9,30.12,ESE,112,3.3,7.3,80,0.00,,,0.00,WUHU216PEETBRO,2013-06-26 01:39:00,
2013-06-25 21:44:00,80.4,74.1,30.12,ENE,73,0.0,7.3,81,0.00,,,0.00,WUHU216PEETBRO,2013-06-26 01:44:00,
2013-06-25 21:49:00,80.2,74.0,30.12,East,81,0.0,5.3,81,0.00,,,0.00,WUHU216PEETBRO,2013-06-26 01:49:00,
2013-06-25 21:54:00,80.2,74.0,30.13,NNE,29,0.0,5.8,81,0.00,,,0.00,WUHU216PEETBRO,2013-06-26 01:54:00,
2013-06-25 21:59:00,80.1,73.9,30.13,SSE,158,0.0,5.8,81,0.00,,,0.00,WUHU216PEETBRO,2013-06-26 01:59:00,
2013-06-25 22:04:00,80.0,73.9,30.13,South,173,0.0,6.0,81,0.00,,,0.00,WUHU216PEETBRO,2013-06-26 02:04:00,
2013-06-25 22:09:00,80.0,73.9,30.13,SE,142,2.9,6.0,82,0.00,,,0.00,WUHU216PEETBRO,2013-06-26 02:09:00,
2013-06-25 22:14:00,79.9,74.1,30.13,ENE,74,0.0,4.8,82,0.00,,,0.00,WUHU216PEETBRO,2013-06-26 02:14:00,
2013-06-25 22:19:00,79.9,74.1,30.13,ESE,122,0.0,6.8,82,0.00,,,0.00,WUHU216PEETBRO,2013-06-26 02:19:00,
2013-06-25 22:24:00,79.8,74.0,30.13,SE,135,0.0,6.8,82,0.00,,,0.00,WUHU216PEETBRO,2013-06-26 02:24:00,
2013-06-25 22:29:00,79.7,74.0,30.13,SSE,152,0.0,5.2,83,0.00,,,0.00,WUHU216PEETBRO,2013-06-26 02:29:00,
2013-06-25 22:34:00,79.5,74.0,30.14,SE,136,2.9,5.3,83,0.00,,,0.00,WUHU216PEETBRO,2013-06-26 02:34:00,
2013-06-25 22:39:00,79.5,74.1,30.14,ENE,73,0.0,5.3,83,0.00,,,0.00,WUHU216PEETBRO,2013-06-26 02:39:00,
2013-06-25 22:44:00,79.5,74.3,30.15,East,81,0.0,4.2,84,0.00,,,0.00,WUHU216PEETBRO,2013-06-26 02:44:00,
2013-06-25 22:49:00,79.4,74.3,30.14,SE,131,0.0,5.5,84,0.00,,,0.00,WUHU216PEETBRO,2013-06-26 02:49:00,
2013-06-25 22:54:00,79.4,74.6,30.14,NE,52,5.2,5.5,85,0.00,,,0.00,WUHU216PEETBRO,2013-06-26 02:54:00,
2013-06-25 22:59:00,79.2,74.4,30.14,North,359,3.3,7.0,85,0.00,,,0.00,WUHU216PEETBRO,2013-06-26 02:59:00,
2013-06-25 23:04:00,79.3,74.7,30.14,NE,43,0.0,7.0,86,0.00,,,0.00,WUHU216PEETBRO,2013-06-26 03:04:00,
2013-06-25 23:09:00,79.3,74.9,30.14,NNE,25,0.0,5.2,86,0.00,,,0.00,WUHU216PEETBRO,2013-06-26 03:09:00,
2013-06-25 23:14:00,79.2,74.8,30.14,NE,52,0.0,4.2,86,0.00,,,0.00,WUHU216PEETBRO,2013-06-26 03:14:00,
2013-06-25 23:19:00,79.3,75.0,30.14,NE,52,0.0,4.2,87,0.00,,,0.00,WUHU216PEETBRO,2013-06-26 03:19:00,
2013-06-25 23:24:00,79.1,74.9,30.14,NNE,32,0.0,2.9,87,0.00,,,0.00,WUHU216PEETBRO,2013-06-26 03:24:00,
2013-06-25 23:29:00,79.1,74.9,30.14,NNE,32,0.0,3.0,87,0.00,,,0.00,WUHU216PEETBRO,2013-06-26 03:29:00,
2013-06-25 23:34:00,78.9,75.1,30.14,NE,35,6.0,7.9,88,0.00,,,0.00,WUHU216PEETBRO,2013-06-26 03:34:00,
2013-06-25 23:39:00,79.0,75.3,30.13,NE,50,7.9,7.9,88,0.00,,,0.00,WUHU216PEETBRO,2013-06-26 03:39:00,
2013-06-25 23:44:00,78.8,75.0,30.13,NNE,16,0.0,7.9,88,0.00,,,0.00,WUHU216PEETBRO,2013-06-26 03:44:00,
2013-06-25 23:49:00,78.7,75.2,30.12,NNE,16,0.0,4.3,89,0.00,,,0.00,WUHU216PEETBRO,2013-06-26 03:49:00,
2013-06-25 23:54:00,78.5,75.2,30.13,NNE,16,0.0,0.0,90,0.00,,,0.00,WUHU216PEETBRO,2013-06-26 03:54:00,
2013-06-25 23:59:00,78.4,75.3,30.13,ESE,118,0.0,2.7,90,0.00,,,0.00,WUHU216PEETBRO,2013-06-26 03:59:00,